FAB2009 SBUA-SBTF
Flight info
| Callsign | FAB2009 |
|---|---|
| Flight time | 0h 55m |
| Altitude | 19000 |
| Route | DCT |
| Aircraft | C97/L-SDE3/C |
Departure
| Time | 2026-04-26 10:38 |
|---|---|
| Airport | São Gabriel da Cachoeira Airport (SBUA) |
Arrival
| Time | 2026-04-26 11:34 |
|---|---|
| Airport | Tefé Airport (SBTF) |
| Time | Latitude | Longitude | Altitude | Speed | Heading |
|---|---|---|---|---|---|
| 2026-04-26 10:34 | -0.15549 | -66.99443 | 257 ft | 0 kts | 133° |
| 2026-04-26 10:37 | -0.15579 | -66.99421 | 257 ft | 7 kts | 139° |
| 2026-04-26 10:37 | -0.15636 | -66.99362 | 257 ft | 12 kts | 132° |
| 2026-04-26 10:37 | -0.15667 | -66.99316 | 257 ft | 9 kts | 89° |
| 2026-04-26 10:37 | -0.15659 | -66.99295 | 257 ft | 0 kts | 42° |
| 2026-04-26 10:38 | -0.15546 | -66.99192 | 257 ft | 67 kts | 43° |
| 2026-04-26 10:38 | -0.15024 | -66.98721 | 369 ft | 117 kts | 42° |
| 2026-04-26 10:38 | -0.14331 | -66.98096 | 617 ft | 151 kts | 42° |
| 2026-04-26 10:38 | -0.13493 | -66.97341 | 1045 ft | 171 kts | 42° |
| 2026-04-26 10:39 | -0.12562 | -66.96500 | 1454 ft | 188 kts | 42° |
| 2026-04-26 10:39 | -0.11553 | -66.95590 | 1851 ft | 203 kts | 42° |
| 2026-04-26 10:39 | -0.10481 | -66.94624 | 2239 ft | 215 kts | 42° |
| 2026-04-26 10:39 | -0.09347 | -66.93601 | 2625 ft | 224 kts | 42° |
| 2026-04-26 10:40 | -0.08160 | -66.92530 | 3012 ft | 231 kts | 42° |
| 2026-04-26 10:40 | -0.06963 | -66.91450 | 3390 ft | 236 kts | 42° |
| 2026-04-26 10:40 | -0.05727 | -66.90334 | 3771 ft | 241 kts | 42° |
| 2026-04-26 10:40 | -0.04488 | -66.89205 | 4148 ft | 245 kts | 41° |
| 2026-04-26 10:41 | -0.03220 | -66.88033 | 4529 ft | 248 kts | 41° |
| 2026-04-26 10:41 | -0.01954 | -66.86840 | 4907 ft | 251 kts | 41° |
| 2026-04-26 10:41 | -0.00684 | -66.85619 | 5283 ft | 255 kts | 41° |
| 2026-04-26 10:41 | 0.00582 | -66.84381 | 5658 ft | 259 kts | 41° |
| 2026-04-26 10:42 | 0.00844 | -66.84122 | 5740 ft | 260 kts | 41° |
| 2026-04-26 10:42 | 0.01986 | -66.82982 | 6095 ft | 264 kts | 43° |
| 2026-04-26 10:42 | 0.03029 | -66.81435 | 6490 ft | 272 kts | 65° |
| 2026-04-26 10:42 | 0.03394 | -66.79579 | 6894 ft | 278 kts | 89° |
| 2026-04-26 10:43 | 0.03016 | -66.77698 | 7296 ft | 279 kts | 114° |
| 2026-04-26 10:43 | 0.01943 | -66.76102 | 7699 ft | 277 kts | 138° |
| 2026-04-26 10:43 | 0.00357 | -66.75058 | 8102 ft | 272 kts | 162° |
| 2026-04-26 10:43 | -0.01487 | -66.74731 | 8509 ft | 265 kts | 186° |
| 2026-04-26 10:44 | -0.03250 | -66.75166 | 8914 ft | 258 kts | 210° |
| 2026-04-26 10:44 | -0.04628 | -66.76255 | 9317 ft | 253 kts | 233° |
| 2026-04-26 10:44 | -0.05548 | -66.77726 | 9730 ft | 252 kts | 245° |
| 2026-04-26 10:44 | -0.06261 | -66.79337 | 10135 ft | 253 kts | 250° |
| 2026-04-26 10:45 | -0.06872 | -66.80987 | 10534 ft | 254 kts | 254° |
| 2026-04-26 10:45 | -0.07245 | -66.82716 | 10940 ft | 255 kts | 261° |
| 2026-04-26 10:45 | -0.07494 | -66.84473 | 11342 ft | 256 kts | 263° |
| 2026-04-26 10:45 | -0.07738 | -66.86242 | 11743 ft | 257 kts | 262° |
| 2026-04-26 10:46 | -0.08026 | -66.88012 | 12145 ft | 259 kts | 261° |
| 2026-04-26 10:46 | -0.08418 | -66.89771 | 12546 ft | 260 kts | 256° |
| 2026-04-26 10:46 | -0.09021 | -66.91477 | 12946 ft | 262 kts | 249° |
| 2026-04-26 10:46 | -0.09857 | -66.93097 | 13347 ft | 264 kts | 242° |
| 2026-04-26 10:47 | -0.10901 | -66.94638 | 13753 ft | 267 kts | 236° |
| 2026-04-26 10:47 | -0.12068 | -66.96062 | 14151 ft | 269 kts | 232° |
| 2026-04-26 10:47 | -0.13374 | -66.97413 | 14548 ft | 272 kts | 223° |
| 2026-04-26 10:47 | -0.15076 | -66.98305 | 14950 ft | 281 kts | 200° |
| 2026-04-26 10:48 | -0.17048 | -66.98459 | 15354 ft | 290 kts | 178° |
| 2026-04-26 10:48 | -0.18979 | -66.97865 | 15759 ft | 298 kts | 159° |
| 2026-04-26 10:48 | -0.20780 | -66.96806 | 16169 ft | 301 kts | 150° |
| 2026-04-26 10:48 | -0.22477 | -66.95566 | 16573 ft | 303 kts | 146° |
| 2026-04-26 10:49 | -0.24132 | -66.94258 | 16974 ft | 303 kts | 145° |
| 2026-04-26 10:49 | -0.25769 | -66.92943 | 17372 ft | 303 kts | 145° |
| 2026-04-26 10:49 | -0.27422 | -66.91629 | 17772 ft | 303 kts | 145° |
| 2026-04-26 10:49 | -0.29082 | -66.90335 | 18172 ft | 302 kts | 146° |
| 2026-04-26 10:50 | -0.30763 | -66.89055 | 18574 ft | 302 kts | 147° |
| 2026-04-26 10:50 | -0.31865 | -66.88230 | 18795 ft | 304 kts | 147° |
| 2026-04-26 10:50 | -0.34189 | -66.86525 | 18967 ft | 314 kts | 148° |
| 2026-04-26 10:50 | -0.35980 | -66.85238 | 19001 ft | 321 kts | 148° |
| 2026-04-26 10:51 | -0.37821 | -66.83930 | 19003 ft | 327 kts | 148° |
| 2026-04-26 10:51 | -0.41572 | -66.81295 | 19001 ft | 334 kts | 148° |
| 2026-04-26 10:51 | -0.43493 | -66.79955 | 19001 ft | 335 kts | 148° |
| 2026-04-26 10:52 | -0.45416 | -66.78616 | 19001 ft | 337 kts | 149° |
| 2026-04-26 10:52 | -0.47322 | -66.77294 | 19000 ft | 337 kts | 149° |
| 2026-04-26 10:52 | -0.49260 | -66.75950 | 19000 ft | 338 kts | 149° |
| 2026-04-26 10:52 | -0.51182 | -66.74620 | 19000 ft | 338 kts | 149° |
| 2026-04-26 10:53 | -0.53122 | -66.73278 | 19000 ft | 338 kts | 149° |
| 2026-04-26 10:53 | -0.55059 | -66.71939 | 19000 ft | 338 kts | 149° |
| 2026-04-26 10:53 | -0.57004 | -66.70596 | 19000 ft | 339 kts | 149° |
| 2026-04-26 10:54 | -0.60870 | -66.67928 | 19000 ft | 339 kts | 149° |
| 2026-04-26 10:54 | -0.62813 | -66.66588 | 19000 ft | 339 kts | 149° |
| 2026-04-26 10:54 | -0.64500 | -66.65424 | 19000 ft | 339 kts | 149° |
| 2026-04-26 10:54 | -0.66452 | -66.64079 | 19000 ft | 339 kts | 149° |
| 2026-04-26 10:55 | -0.68375 | -66.62753 | 19000 ft | 339 kts | 149° |
| 2026-04-26 10:55 | -0.70313 | -66.61418 | 19000 ft | 339 kts | 149° |
| 2026-04-26 10:55 | -0.72233 | -66.60094 | 19000 ft | 339 kts | 149° |
| 2026-04-26 10:55 | -0.73528 | -66.59201 | 19000 ft | 339 kts | 149° |
| 2026-04-26 10:56 | -0.76128 | -66.57410 | 19000 ft | 339 kts | 149° |
| 2026-04-26 10:56 | -0.78074 | -66.56069 | 19000 ft | 339 kts | 149° |
| 2026-04-26 10:56 | -0.80014 | -66.54731 | 19000 ft | 339 kts | 149° |
| 2026-04-26 10:56 | -0.81975 | -66.53380 | 19000 ft | 339 kts | 149° |
| 2026-04-26 10:57 | -0.83890 | -66.52061 | 19000 ft | 339 kts | 149° |
| 2026-04-26 10:57 | -0.85846 | -66.50713 | 19000 ft | 339 kts | 149° |
| 2026-04-26 10:57 | -0.87779 | -66.49381 | 19000 ft | 339 kts | 149° |
| 2026-04-26 10:57 | -0.89729 | -66.48037 | 19000 ft | 339 kts | 149° |
| 2026-04-26 10:58 | -0.91661 | -66.46706 | 19000 ft | 339 kts | 149° |
| 2026-04-26 10:58 | -0.93600 | -66.45369 | 19000 ft | 339 kts | 149° |
| 2026-04-26 10:58 | -0.95538 | -66.44033 | 19000 ft | 339 kts | 149° |
| 2026-04-26 10:58 | -0.97482 | -66.42694 | 19000 ft | 339 kts | 149° |
| 2026-04-26 10:59 | -0.99417 | -66.41360 | 19000 ft | 339 kts | 149° |
| 2026-04-26 10:59 | -1.01359 | -66.40022 | 19000 ft | 339 kts | 149° |
| 2026-04-26 10:59 | -1.02657 | -66.39127 | 19000 ft | 339 kts | 149° |
| 2026-04-26 10:59 | -1.04592 | -66.37794 | 19000 ft | 339 kts | 149° |
| 2026-04-26 11:00 | -1.06528 | -66.36459 | 19000 ft | 339 kts | 149° |
| 2026-04-26 11:00 | -1.08494 | -66.35104 | 19000 ft | 339 kts | 149° |
| 2026-04-26 11:00 | -1.10430 | -66.33770 | 19000 ft | 339 kts | 149° |
| 2026-04-26 11:00 | -1.12372 | -66.32431 | 19000 ft | 339 kts | 149° |
| 2026-04-26 11:01 | -1.14302 | -66.31102 | 19000 ft | 339 kts | 149° |
| 2026-04-26 11:01 | -1.16246 | -66.29762 | 19000 ft | 339 kts | 149° |
| 2026-04-26 11:01 | -1.18200 | -66.28415 | 19000 ft | 339 kts | 149° |
| 2026-04-26 11:01 | -1.20127 | -66.27087 | 19000 ft | 339 kts | 149° |
| 2026-04-26 11:02 | -1.22081 | -66.25740 | 19000 ft | 339 kts | 149° |
| 2026-04-26 11:02 | -1.24016 | -66.24406 | 19000 ft | 339 kts | 149° |
| 2026-04-26 11:02 | -1.25958 | -66.23067 | 19000 ft | 339 kts | 149° |
| 2026-04-26 11:02 | -1.27908 | -66.21723 | 19000 ft | 339 kts | 149° |
| 2026-04-26 11:03 | -1.29845 | -66.20387 | 19000 ft | 339 kts | 149° |
| 2026-04-26 11:03 | -1.31774 | -66.19058 | 19000 ft | 339 kts | 149° |
| 2026-04-26 11:03 | -1.33727 | -66.17711 | 19000 ft | 339 kts | 149° |
| 2026-04-26 11:03 | -1.35667 | -66.16374 | 19000 ft | 339 kts | 149° |
| 2026-04-26 11:04 | -1.37593 | -66.15046 | 19000 ft | 339 kts | 149° |
| 2026-04-26 11:04 | -1.39533 | -66.13709 | 19000 ft | 339 kts | 149° |
| 2026-04-26 11:04 | -1.41484 | -66.12364 | 19000 ft | 339 kts | 149° |
| 2026-04-26 11:04 | -1.43416 | -66.11032 | 19000 ft | 339 kts | 149° |
| 2026-04-26 11:05 | -1.45376 | -66.09680 | 19000 ft | 339 kts | 149° |
| 2026-04-26 11:05 | -1.47318 | -66.08341 | 19000 ft | 339 kts | 149° |
| 2026-04-26 11:05 | -1.49256 | -66.07005 | 19000 ft | 339 kts | 149° |
| 2026-04-26 11:05 | -1.51198 | -66.05666 | 19000 ft | 339 kts | 149° |
| 2026-04-26 11:06 | -1.53136 | -66.04330 | 19000 ft | 339 kts | 149° |
| 2026-04-26 11:06 | -1.55085 | -66.02986 | 19000 ft | 339 kts | 149° |
| 2026-04-26 11:06 | -1.57018 | -66.01653 | 19000 ft | 339 kts | 149° |
| 2026-04-26 11:06 | -1.58950 | -66.00321 | 19000 ft | 339 kts | 149° |
| 2026-04-26 11:07 | -1.60912 | -65.98968 | 19000 ft | 339 kts | 149° |
| 2026-04-26 11:07 | -1.62825 | -65.97649 | 19000 ft | 339 kts | 149° |
| 2026-04-26 11:07 | -1.64785 | -65.96297 | 19000 ft | 339 kts | 149° |
| 2026-04-26 11:07 | -1.66724 | -65.94960 | 19000 ft | 339 kts | 149° |
| 2026-04-26 11:08 | -1.68657 | -65.93627 | 19000 ft | 339 kts | 149° |
| 2026-04-26 11:08 | -1.70610 | -65.92280 | 19000 ft | 339 kts | 149° |
| 2026-04-26 11:08 | -1.72545 | -65.90946 | 19000 ft | 339 kts | 149° |
| 2026-04-26 11:08 | -1.74484 | -65.89608 | 19000 ft | 339 kts | 149° |
| 2026-04-26 11:09 | -1.76417 | -65.88275 | 19000 ft | 339 kts | 149° |
| 2026-04-26 11:09 | -1.78375 | -65.86925 | 19000 ft | 339 kts | 149° |
| 2026-04-26 11:09 | -1.80320 | -65.85583 | 19000 ft | 339 kts | 149° |
| 2026-04-26 11:09 | -1.82249 | -65.84253 | 19000 ft | 339 kts | 149° |
| 2026-04-26 11:10 | -1.84210 | -65.82900 | 19000 ft | 339 kts | 149° |
| 2026-04-26 11:10 | -1.86143 | -65.81567 | 19000 ft | 339 kts | 149° |
| 2026-04-26 11:10 | -1.88078 | -65.80232 | 19000 ft | 339 kts | 149° |
| 2026-04-26 11:10 | -1.90021 | -65.78892 | 19000 ft | 339 kts | 149° |
| 2026-04-26 11:11 | -1.91951 | -65.77560 | 19000 ft | 339 kts | 149° |
| 2026-04-26 11:11 | -1.93904 | -65.76213 | 19000 ft | 339 kts | 149° |
| 2026-04-26 11:11 | -1.94544 | -65.75771 | 19000 ft | 339 kts | 149° |
| 2026-04-26 11:11 | -1.96502 | -65.74420 | 19000 ft | 339 kts | 149° |
| 2026-04-26 11:12 | -1.99733 | -65.72191 | 18999 ft | 338 kts | 149° |
| 2026-04-26 11:12 | -2.01652 | -65.70866 | 18720 ft | 336 kts | 149° |
| 2026-04-26 11:12 | -2.03564 | -65.69546 | 18465 ft | 334 kts | 149° |
| 2026-04-26 11:12 | -2.05471 | -65.68229 | 18213 ft | 332 kts | 149° |
| 2026-04-26 11:13 | -2.07361 | -65.66924 | 17964 ft | 331 kts | 149° |
| 2026-04-26 11:13 | -2.09262 | -65.65612 | 17712 ft | 330 kts | 149° |
| 2026-04-26 11:13 | -2.11158 | -65.64304 | 17461 ft | 329 kts | 149° |
| 2026-04-26 11:13 | -2.13039 | -65.63006 | 17211 ft | 329 kts | 149° |
| 2026-04-26 11:14 | -2.14913 | -65.61713 | 16962 ft | 329 kts | 149° |
| 2026-04-26 11:14 | -2.16807 | -65.60407 | 16711 ft | 328 kts | 149° |
| 2026-04-26 11:14 | -2.18683 | -65.59112 | 16461 ft | 328 kts | 149° |
| 2026-04-26 11:14 | -2.20575 | -65.57807 | 16209 ft | 328 kts | 149° |
| 2026-04-26 11:15 | -2.22449 | -65.56513 | 15959 ft | 328 kts | 149° |
| 2026-04-26 11:15 | -2.24317 | -65.55225 | 15711 ft | 328 kts | 149° |
| 2026-04-26 11:15 | -2.26192 | -65.53930 | 15460 ft | 327 kts | 149° |
| 2026-04-26 11:15 | -2.28053 | -65.52646 | 15212 ft | 327 kts | 149° |
| 2026-04-26 11:16 | -2.29951 | -65.51336 | 14959 ft | 327 kts | 149° |
| 2026-04-26 11:16 | -2.31822 | -65.50045 | 14709 ft | 327 kts | 149° |
| 2026-04-26 11:16 | -2.33689 | -65.48756 | 14459 ft | 326 kts | 149° |
| 2026-04-26 11:16 | -2.35540 | -65.47478 | 14211 ft | 326 kts | 149° |
| 2026-04-26 11:17 | -2.37410 | -65.46187 | 13960 ft | 325 kts | 149° |
| 2026-04-26 11:17 | -2.39266 | -65.44905 | 13710 ft | 324 kts | 149° |
| 2026-04-26 11:17 | -2.41114 | -65.43629 | 13460 ft | 323 kts | 149° |
| 2026-04-26 11:17 | -2.42960 | -65.42354 | 13210 ft | 322 kts | 149° |
| 2026-04-26 11:18 | -2.44796 | -65.41086 | 12961 ft | 322 kts | 149° |
| 2026-04-26 11:18 | -2.46642 | -65.39812 | 12710 ft | 321 kts | 149° |
| 2026-04-26 11:18 | -2.48470 | -65.38549 | 12460 ft | 320 kts | 149° |
| 2026-04-26 11:18 | -2.50322 | -65.37269 | 12207 ft | 319 kts | 149° |
| 2026-04-26 11:19 | -2.52139 | -65.36015 | 11957 ft | 318 kts | 149° |
| 2026-04-26 11:19 | -2.53947 | -65.34767 | 11709 ft | 317 kts | 149° |
| 2026-04-26 11:19 | -2.55763 | -65.33512 | 11458 ft | 317 kts | 149° |
| 2026-04-26 11:19 | -2.57579 | -65.32258 | 11207 ft | 316 kts | 149° |
| 2026-04-26 11:20 | -2.59373 | -65.31019 | 10959 ft | 315 kts | 149° |
| 2026-04-26 11:20 | -2.60576 | -65.30188 | 10791 ft | 314 kts | 148° |
| 2026-04-26 11:20 | -2.62982 | -65.28526 | 10456 ft | 313 kts | 148° |
| 2026-04-26 11:20 | -2.64768 | -65.27293 | 10207 ft | 312 kts | 148° |
| 2026-04-26 11:21 | -2.66548 | -65.26063 | 9957 ft | 312 kts | 148° |
| 2026-04-26 11:21 | -2.68349 | -65.24818 | 9704 ft | 311 kts | 148° |
| 2026-04-26 11:21 | -2.70114 | -65.23599 | 9456 ft | 310 kts | 148° |
| 2026-04-26 11:21 | -2.71893 | -65.22370 | 9205 ft | 309 kts | 148° |
| 2026-04-26 11:22 | -2.73642 | -65.21162 | 8957 ft | 308 kts | 148° |
| 2026-04-26 11:22 | -2.75428 | -65.19928 | 8704 ft | 308 kts | 148° |
| 2026-04-26 11:22 | -2.77182 | -65.18716 | 8454 ft | 307 kts | 148° |
| 2026-04-26 11:22 | -2.78929 | -65.17509 | 8205 ft | 306 kts | 148° |
| 2026-04-26 11:23 | -2.80690 | -65.16292 | 7953 ft | 305 kts | 148° |
| 2026-04-26 11:23 | -2.82398 | -65.15110 | 7705 ft | 297 kts | 148° |
| 2026-04-26 11:23 | -2.84077 | -65.13947 | 7499 ft | 285 kts | 148° |
| 2026-04-26 11:23 | -2.85673 | -65.12838 | 7294 ft | 273 kts | 149° |
| 2026-04-26 11:24 | -2.87204 | -65.11776 | 7091 ft | 265 kts | 149° |
| 2026-04-26 11:24 | -2.88704 | -65.10737 | 6887 ft | 258 kts | 149° |
| 2026-04-26 11:24 | -2.90163 | -65.09729 | 6685 ft | 254 kts | 149° |
| 2026-04-26 11:24 | -2.91636 | -65.08715 | 6487 ft | 262 kts | 149° |
| 2026-04-26 11:25 | -2.93177 | -65.07660 | 6292 ft | 274 kts | 148° |
| 2026-04-26 11:25 | -2.94772 | -65.06568 | 6096 ft | 282 kts | 148° |
| 2026-04-26 11:25 | -2.96420 | -65.05436 | 5895 ft | 287 kts | 147° |
| 2026-04-26 11:25 | -2.98083 | -65.04292 | 5696 ft | 290 kts | 147° |
| 2026-04-26 11:26 | -2.99717 | -65.03163 | 5501 ft | 292 kts | 146° |
| 2026-04-26 11:26 | -3.01408 | -65.01995 | 5299 ft | 292 kts | 146° |
| 2026-04-26 11:26 | -3.03074 | -65.00841 | 5100 ft | 292 kts | 146° |
| 2026-04-26 11:26 | -3.04752 | -64.99679 | 4899 ft | 291 kts | 145° |
| 2026-04-26 11:27 | -3.06405 | -64.98533 | 4699 ft | 290 kts | 145° |
| 2026-04-26 11:27 | -3.08068 | -64.97380 | 4498 ft | 288 kts | 145° |
| 2026-04-26 11:27 | -3.09716 | -64.96238 | 4298 ft | 287 kts | 145° |
| 2026-04-26 11:27 | -3.11330 | -64.95119 | 4137 ft | 284 kts | 145° |
| 2026-04-26 11:28 | -3.12950 | -64.93996 | 4036 ft | 280 kts | 145° |
| 2026-04-26 11:28 | -3.14537 | -64.92896 | 4006 ft | 274 kts | 145° |
| 2026-04-26 11:28 | -3.16069 | -64.91834 | 3999 ft | 266 kts | 145° |
| 2026-04-26 11:28 | -3.17560 | -64.90765 | 3806 ft | 263 kts | 143° |
| 2026-04-26 11:29 | -3.19006 | -64.89649 | 3556 ft | 259 kts | 141° |
| 2026-04-26 11:29 | -3.20384 | -64.88516 | 3323 ft | 247 kts | 140° |
| 2026-04-26 11:29 | -3.21651 | -64.87421 | 3062 ft | 231 kts | 139° |
| 2026-04-26 11:29 | -3.22684 | -64.86501 | 2835 ft | 220 kts | 138° |
| 2026-04-26 11:30 | -3.23797 | -64.85489 | 2579 ft | 212 kts | 137° |
| 2026-04-26 11:30 | -3.24513 | -64.84838 | 2411 ft | 208 kts | 137° |
| 2026-04-26 11:30 | -3.25919 | -64.83565 | 2097 ft | 202 kts | 138° |
| 2026-04-26 11:30 | -3.26947 | -64.82637 | 1957 ft | 195 kts | 138° |
| 2026-04-26 11:31 | -3.27927 | -64.81753 | 1904 ft | 187 kts | 138° |
| 2026-04-26 11:31 | -3.28826 | -64.80944 | 1905 ft | 158 kts | 138° |
| 2026-04-26 11:31 | -3.29614 | -64.80234 | 1829 ft | 150 kts | 138° |
| 2026-04-26 11:31 | -3.30401 | -64.79525 | 1619 ft | 153 kts | 138° |
| 2026-04-26 11:32 | -3.31195 | -64.78811 | 1422 ft | 154 kts | 138° |
| 2026-04-26 11:32 | -3.31990 | -64.78101 | 1226 ft | 155 kts | 138° |
| 2026-04-26 11:32 | -3.32797 | -64.77383 | 1026 ft | 155 kts | 138° |
| 2026-04-26 11:32 | -3.33606 | -64.76661 | 826 ft | 155 kts | 138° |
| 2026-04-26 11:33 | -3.34386 | -64.75959 | 847 ft | 140 kts | 138° |
| 2026-04-26 11:33 | -3.35104 | -64.75310 | 829 ft | 141 kts | 138° |
| 2026-04-26 11:33 | -3.35871 | -64.74614 | 823 ft | 155 kts | 137° |
| 2026-04-26 11:33 | -3.36661 | -64.73886 | 699 ft | 149 kts | 136° |
| 2026-04-26 11:34 | -3.37367 | -64.73231 | 374 ft | 124 kts | 138° |
| 2026-04-26 11:34 | -3.37926 | -64.72741 | 194 ft | 83 kts | 142° |
| 2026-04-26 11:34 | -3.38086 | -64.72602 | 194 ft | 10 kts | 140° |
| 2026-04-26 11:34 | -3.38132 | -64.72562 | 194 ft | 10 kts | 137° |
| 2026-04-26 11:35 | -3.38193 | -64.72499 | 194 ft | 10 kts | 109° |
| 2026-04-26 11:35 | -3.38149 | -64.72442 | 194 ft | 13 kts | 46° |
| 2026-04-26 11:35 | -3.38095 | -64.72417 | 194 ft | 5 kts | 341° |
| 2026-04-26 11:35 | -3.38071 | -64.72411 | 194 ft | 0 kts | 56° |
| 2026-04-26 11:36 | -3.38066 | -64.72404 | 194 ft | 0 kts | 56° |